Time;durP1;ratioP1;P1;durP2;ratioP2;P2;SDS_P1;SDS_P2;PMS_P1;PMS_P2;Temp;Humidity;BMP_temperature;BMP_pressure;BME280_temperature;BME280_humidity;BME280_pressure;Samples;Min_cycle;Max_cycle;Signal;HPM_P1;HPM_P2
2023/03/17 04:00:39;;;;;;;6.80;3.80;;;7.70;99.90;;;;;;6210291;22;20099;-77
2023/03/17 04:03:05;;;;;;;6.25;3.92;;;7.70;99.90;;;;;;6245565;23;20012;-76
2023/03/17 04:05:31;;;;;;;5.63;3.50;;;7.70;99.90;;;;;;6247296;22;20082;-76
2023/03/17 04:07:57;;;;;;;7.88;3.42;;;7.70;99.90;;;;;;6245793;23;20089;-77
2023/03/17 04:10:22;;;;;;;6.50;3.63;;;7.70;99.90;;;;;;6245706;22;20391;-78
2023/03/17 04:12:48;;;;;;;6.88;3.90;;;7.80;99.90;;;;;;6245702;23;20039;-76
2023/03/17 04:15:16;;;;;;;6.28;3.75;;;7.70;99.90;;;;;;6220528;23;20012;-76
2023/03/17 04:17:42;;;;;;;13.57;4.85;;;7.70;99.90;;;;;;6245793;23;20016;-76
2023/03/17 04:20:10;;;;;;;6.45;3.58;;;7.70;99.90;;;;;;6246711;23;20174;-77
2023/03/17 04:22:36;;;;;;;9.23;3.85;;;7.70;99.90;;;;;;6245575;23;20445;-77
2023/03/17 04:25:02;;;;;;;5.43;3.50;;;7.70;99.90;;;;;;6245950;23;20046;-77
2023/03/17 04:27:27;;;;;;;5.28;3.53;;;7.70;99.90;;;;;;6247765;23;20004;-76
2023/03/17 04:29:53;;;;;;;11.05;4.20;;;7.70;99.90;;;;;;6245843;23;20066;-77
2023/03/17 04:32:19;;;;;;;6.47;3.70;;;7.70;99.90;;;;;;6247618;22;20070;-78
2023/03/17 04:34:44;;;;;;;9.57;3.75;;;7.70;99.90;;;;;;6245989;23;20024;-76
2023/03/17 04:37:11;;;;;;;7.05;3.72;;;7.70;99.90;;;;;;6247541;23;20012;-77
2023/03/17 04:39:37;;;;;;;8.52;3.75;;;7.60;99.90;;;;;;6245479;23;20449;-77
2023/03/17 04:42:04;;;;;;;5.55;3.50;;;7.60;99.90;;;;;;6245440;22;20023;-77
2023/03/17 04:44:29;;;;;;;8.38;3.58;;;7.60;99.90;;;;;;6245403;23;20016;-78
2023/03/17 04:46:55;;;;;;;5.72;3.47;;;7.60;99.90;;;;;;6220336;23;20016;-77
2023/03/17 04:49:21;;;;;;;7.00;3.80;;;7.60;99.90;;;;;;6245557;23;20438;-77
2023/03/17 04:51:47;;;;;;;7.45;3.42;;;7.60;99.90;;;;;;6220137;23;20449;-77
2023/03/17 04:54:12;;;;;;;6.55;3.30;;;7.70;99.90;;;;;;6245372;23;20081;-78
2023/03/17 04:56:38;;;;;;;7.75;3.10;;;7.60;99.90;;;;;;6220026;23;20019;-78
2023/03/17 04:59:04;;;;;;;7.95;3.80;;;7.60;99.90;;;;;;6245442;23;20046;-77
2023/03/17 05:01:30;;;;;;;6.47;3.20;;;7.70;99.90;;;;;;6246673;22;20472;-77
2023/03/17 05:03:56;;;;;;;6.03;3.40;;;7.70;99.90;;;;;;6246832;23;20307;-77
2023/03/17 05:06:22;;;;;;;6.60;3.42;;;7.70;99.90;;;;;;6245467;23;20091;-79
2023/03/17 05:08:47;;;;;;;5.60;3.33;;;7.70;99.90;;;;;;6247281;23;20421;-77
2023/03/17 05:11:13;;;;;;;5.90;3.20;;;7.70;99.90;;;;;;6219957;23;20016;-78
2023/03/17 05:13:39;;;;;;;6.25;3.40;;;7.70;99.90;;;;;;6220059;23;20046;-78
2023/03/17 05:16:06;;;;;;;6.13;3.58;;;7.70;99.90;;;;;;6247082;23;20008;-77
2023/03/17 05:18:32;;;;;;;9.13;3.83;;;7.70;99.90;;;;;;6246532;23;20015;-77
2023/03/17 05:20:58;;;;;;;5.55;3.20;;;7.70;99.90;;;;;;6246959;22;20012;-77
2023/03/17 05:23:24;;;;;;;7.82;3.85;;;7.70;99.90;;;;;;6247102;23;20457;-78
2023/03/17 05:25:51;;;;;;;10.07;3.80;;;7.70;99.90;;;;;;6247061;23;20008;-76
2023/03/17 05:28:19;;;;;;;12.13;3.67;;;7.70;99.90;;;;;;6244973;23;20047;-77
2023/03/17 05:30:46;;;;;;;6.68;3.25;;;7.70;99.90;;;;;;6244986;22;20030;-77
2023/03/17 05:33:13;;;;;;;6.25;3.53;;;7.70;99.90;;;;;;6245139;23;20338;-77
2023/03/17 05:35:39;;;;;;;7.35;3.22;;;7.70;99.90;;;;;;6245076;23;20012;-77
2023/03/17 05:38:06;;;;;;;6.72;3.30;;;7.70;99.90;;;;;;6245080;23;20022;-80
2023/03/17 05:40:31;;;;;;;8.02;3.38;;;7.70;99.90;;;;;;6219520;22;20012;-78
2023/03/17 05:42:57;;;;;;;5.40;3.40;;;7.70;99.90;;;;;;6246832;23;20016;-77
2023/03/17 05:45:23;;;;;;;7.53;3.30;;;7.70;99.90;;;;;;6247158;23;20015;-78
2023/03/17 05:47:48;;;;;;;5.82;3.22;;;7.70;99.90;;;;;;6246825;23;20033;-77
2023/03/17 05:50:14;;;;;;;7.80;3.70;;;7.70;99.90;;;;;;6244767;22;20016;-77
2023/03/17 05:52:40;;;;;;;6.03;3.50;;;7.70;99.90;;;;;;6247948;23;20058;-77
2023/03/17 05:55:07;;;;;;;6.97;3.10;;;7.70;99.90;;;;;;6220123;23;20050;-77
2023/03/17 05:57:33;;;;;;;8.30;3.55;;;7.70;99.90;;;;;;6246903;23;20099;-78
2023/03/17 05:59:58;;;;;;;6.82;3.30;;;7.70;99.90;;;;;;6245045;23;20048;-77
2023/03/17 06:02:24;;;;;;;7.50;3.47;;;7.70;99.90;;;;;;6219321;23;20067;-77
2023/03/17 06:04:50;;;;;;;6.82;3.40;;;7.70;99.90;;;;;;6246531;23;20353;-78
2023/03/17 06:07:16;;;;;;;7.40;3.42;;;7.70;99.90;;;;;;6246632;23;20075;-78
2023/03/17 06:09:42;;;;;;;4.70;3.20;;;7.70;99.90;;;;;;6245540;23;20458;-77
2023/03/17 06:12:08;;;;;;;5.65;3.20;;;7.70;99.90;;;;;;6246171;22;20415;-78
2023/03/17 06:14:35;;;;;;;6.40;3.20;;;7.70;99.90;;;;;;6246341;23;20050;-78
2023/03/17 06:17:01;;;;;;;5.80;3.50;;;7.70;99.90;;;;;;6244328;23;20012;-76
2023/03/17 06:19:27;;;;;;;7.03;3.67;;;7.70;99.90;;;;;;6245430;23;20050;-77
2023/03/17 06:21:52;;;;;;;6.85;3.60;;;7.70;99.90;;;;;;6244327;22;20430;-78
2023/03/17 06:24:18;;;;;;;6.38;3.75;;;7.70;99.90;;;;;;6244467;23;20139;-80
2023/03/17 06:26:44;;;;;;;8.10;3.88;;;7.80;99.90;;;;;;6246310;23;20158;-78
2023/03/17 06:29:11;;;;;;;7.28;3.78;;;7.70;99.90;;;;;;6246104;23;20450;-77
2023/03/17 06:31:37;;;;;;;5.85;3.28;;;7.70;99.90;;;;;;6219127;23;20139;-78
2023/03/17 06:34:03;;;;;;;7.18;3.40;;;7.70;99.90;;;;;;6242846;23;20016;-79
2023/03/17 06:36:31;;;;;;;8.48;3.85;;;7.70;99.90;;;;;;6241528;23;20378;-76
2023/03/17 06:38:57;;;;;;;6.47;3.33;;;7.70;99.90;;;;;;6241828;23;20012;-77
2023/03/17 06:41:23;;;;;;;6.28;3.20;;;7.70;99.90;;;;;;6245995;22;20091;-77
2023/03/17 06:43:50;;;;;;;7.78;3.88;;;7.80;99.90;;;;;;6244309;23;20065;-78
2023/03/17 06:46:16;;;;;;;6.90;3.50;;;7.80;99.90;;;;;;6219000;23;20070;-77
2023/03/17 06:48:42;;;;;;;7.80;3.72;;;7.80;99.90;;;;;;6245052;23;20012;-79
2023/03/17 06:51:08;;;;;;;8.23;3.50;;;7.90;99.90;;;;;;6246056;22;20036;-77
2023/03/17 06:53:33;;;;;;;6.60;3.88;;;7.90;99.90;;;;;;6246118;23;20062;-77
2023/03/17 06:55:59;;;;;;;6.97;3.40;;;7.90;99.90;;;;;;6218897;23;20012;-78
2023/03/17 06:58:25;;;;;;;13.65;3.95;;;7.90;99.90;;;;;;6218806;23;20343;-79
2023/03/17 07:00:52;;;;;;;5.68;3.15;;;7.90;99.90;;;;;;6243919;22;20356;-76
2023/03/17 07:03:19;;;;;;;7.32;3.30;;;7.90;99.90;;;;;;6243928;23;20106;-78
2023/03/17 07:05:45;;;;;;;5.85;3.30;;;8.00;99.90;;;;;;6244074;23;20381;-76
2023/03/17 07:08:11;;;;;;;7.75;3.30;;;7.90;99.90;;;;;;6244054;23;20008;-76
2023/03/17 07:10:37;;;;;;;7.38;4.00;;;8.00;99.90;;;;;;6243948;22;20012;-76
2023/03/17 07:13:04;;;;;;;9.73;3.55;;;8.00;99.90;;;;;;6243923;23;20481;-78
2023/03/17 07:15:33;;;;;;;6.15;3.35;;;8.00;99.90;;;;;;6218736;23;20103;-77
2023/03/17 07:17:59;;;;;;;8.40;3.83;;;8.00;99.90;;;;;;6244107;23;20046;-76
2023/03/17 07:20:25;;;;;;;8.45;3.15;;;8.00;99.90;;;;;;6245420;22;20350;-77
2023/03/17 07:22:51;;;;;;;7.57;3.70;;;8.10;99.90;;;;;;6243805;23;20064;-77
2023/03/17 07:25:18;;;;;;;9.85;4.10;;;8.20;99.90;;;;;;6246023;22;20020;-78
2023/03/17 07:27:44;;;;;;;8.02;4.30;;;8.20;99.90;;;;;;6244357;23;20012;-80
2023/03/17 07:30:12;;;;;;;7.13;3.75;;;8.30;99.90;;;;;;6244468;23;20019;-79
2023/03/17 07:32:38;;;;;;;7.25;3.53;;;8.40;99.90;;;;;;6244476;23;20453;-80
2023/03/17 07:35:04;;;;;;;6.93;3.80;;;8.50;99.90;;;;;;6244066;23;20016;-79
2023/03/17 07:37:30;;;;;;;7.30;3.50;;;8.50;99.90;;;;;;6243923;23;20018;-79
2023/03/17 07:39:56;;;;;;;7.95;3.95;;;8.50;99.90;;;;;;6243906;23;20098;-80
2023/03/17 07:42:21;;;;;;;7.50;3.40;;;8.50;99.90;;;;;;6243982;22;20081;-80
2023/03/17 07:44:47;;;;;;;5.85;3.50;;;8.60;99.90;;;;;;6243978;23;20085;-79
2023/03/17 07:47:13;;;;;;;7.30;3.67;;;8.60;99.90;;;;;;6243826;23;20008;-79
2023/03/17 07:49:40;;;;;;;6.72;3.80;;;8.60;99.90;;;;;;6243770;23;20146;-79
2023/03/17 07:52:07;;;;;;;7.13;3.33;;;8.80;99.90;;;;;;6243647;22;20105;-79
2023/03/17 07:54:33;;;;;;;6.68;3.40;;;8.80;99.90;;;;;;6243873;23;20334;-80
2023/03/17 07:56:59;;;;;;;5.30;3.15;;;8.90;99.90;;;;;;6245712;23;20012;-81
2023/03/17 07:59:25;;;;;;;6.95;3.30;;;9.00;99.90;;;;;;6243938;23;20353;-82
2023/03/17 08:01:50;;;;;;;6.45;3.78;;;9.10;99.90;;;;;;6243745;22;20020;-82
2023/03/17 08:04:16;;;;;;;6.20;3.47;;;9.10;99.90;;;;;;6218663;23;20380;-80
2023/03/17 08:06:42;;;;;;;6.38;3.63;;;9.20;99.90;;;;;;6218432;23;20008;-80
2023/03/17 08:09:10;;;;;;;5.43;3.40;;;9.20;99.90;;;;;;6245792;23;20011;-81
2023/03/17 08:11:36;;;;;;;8.40;3.47;;;9.20;99.90;;;;;;6245340;22;20012;-79
2023/03/17 08:14:03;;;;;;;8.20;3.47;;;9.30;99.90;;;;;;6243754;23;20023;-80
2023/03/17 08:16:29;;;;;;;7.25;3.28;;;9.30;99.90;;;;;;6245772;23;20005;-80
2023/03/17 08:18:57;;;;;;;7.43;3.90;;;9.20;99.90;;;;;;6245663;23;20066;-80
2023/03/17 08:21:24;;;;;;;10.73;3.80;;;9.30;99.90;;;;;;6245650;22;20013;-80
2023/03/17 08:23:49;;;;;;;6.82;3.50;;;9.20;99.90;;;;;;6245789;23;20062;-81
2023/03/17 08:26:17;;;;;;;8.40;3.58;;;9.20;99.90;;;;;;6243982;23;20048;-81
2023/03/17 08:28:43;;;;;;;8.60;4.43;;;9.20;99.90;;;;;;6245792;23;20005;-81
2023/03/17 08:31:12;;;;;;;7.00;3.30;;;9.20;99.90;;;;;;6243610;22;20012;-81
2023/03/17 08:33:39;;;;;;;6.32;3.45;;;9.20;99.90;;;;;;6244684;23;20012;-80
2023/03/17 08:36:08;;;;;;;5.82;3.67;;;9.20;99.90;;;;;;6243743;23;20020;-80
2023/03/17 08:38:37;;;;;;;5.97;3.58;;;9.20;99.90;;;;;;6243804;23;20051;-80
2023/03/17 08:41:05;;;;;;;9.20;4.03;;;9.20;99.90;;;;;;6245505;22;20019;-81
2023/03/17 08:43:32;;;;;;;6.30;3.97;;;9.10;99.90;;;;;;6245515;23;20016;-80
2023/03/17 08:46:12;;;;;;;8.02;4.18;;;9.10;99.90;;;;;;6245634;23;20047;-81
2023/03/17 08:48:37;;;;;;;7.30;4.18;;;9.20;99.90;;;;;;6220364;23;20049;-81
2023/03/17 08:51:07;;;;;;;6.90;3.85;;;9.20;99.90;;;;;;6247926;22;20011;-77
2023/03/17 08:53:33;;;;;;;9.48;4.30;;;9.40;99.90;;;;;;6245439;23;20346;-79
2023/03/17 08:56:10;;;;;;;7.35;4.32;;;9.50;99.90;;;;;;6247385;23;20032;-79
2023/03/17 08:58:38;;;;;;;14.13;4.30;;;9.70;99.90;;;;;;6194179;23;20438;-79
2023/03/17 09:01:05;;;;;;;8.98;4.10;;;9.80;99.90;;;;;;6245668;22;20564;-79
2023/03/17 09:03:32;;;;;;;9.10;4.00;;;9.90;99.90;;;;;;6244922;23;20063;-78
2023/03/17 09:05:58;;;;;;;7.35;3.80;;;10.00;99.90;;;;;;6244918;23;20077;-78
2023/03/17 09:08:25;;;;;;;6.45;3.65;;;10.20;99.90;;;;;;6244489;23;20043;-78
2023/03/17 09:10:52;;;;;;;5.65;3.75;;;10.40;99.90;;;;;;6245705;22;20047;-79
2023/03/17 09:13:18;;;;;;;9.20;3.97;;;10.60;99.90;;;;;;6244615;23;20031;-79
2023/03/17 09:15:44;;;;;;;11.63;3.72;;;10.70;99.90;;;;;;6244775;23;20060;-79
2023/03/17 09:18:11;;;;;;;7.43;4.28;;;10.90;99.90;;;;;;6244732;23;20448;-79
2023/03/17 09:20:36;;;;;;;5.82;3.72;;;11.00;99.90;;;;;;6244929;22;20311;-79
2023/03/17 09:23:07;;;;;;;7.47;3.53;;;11.20;99.90;;;;;;6245150;23;20074;-77
2023/03/17 09:25:34;;;;;;;6.63;3.88;;;11.20;99.90;;;;;;6245201;23;20036;-77
2023/03/17 09:28:00;;;;;;;5.93;3.60;;;11.40;99.90;;;;;;6220185;23;20338;-76
2023/03/17 09:30:26;;;;;;;8.45;3.97;;;11.50;99.90;;;;;;6245183;22;20016;-78
2023/03/17 09:32:52;;;;;;;6.57;3.80;;;11.60;99.90;;;;;;6245063;23;20071;-78
2023/03/17 09:35:18;;;;;;;9.95;3.70;;;11.80;99.90;;;;;;6247078;23;20014;-78
2023/03/17 09:37:43;;;;;;;7.70;3.90;;;11.90;99.90;;;;;;6246662;23;20036;-78
2023/03/17 09:40:14;;;;;;;7.65;4.03;;;12.00;99.90;;;;;;6219830;23;20019;-78
2023/03/17 09:42:42;;;;;;;6.47;3.80;;;12.10;99.90;;;;;;6220289;23;20020;-79
2023/03/17 09:45:32;;;;;;;8.07;4.20;;;12.20;99.90;;;;;;6245601;23;20016;-79
2023/03/17 09:48:21;;;;;;;7.53;4.18;;;12.40;99.90;;;;;;6247229;23;20008;-79
2023/03/17 09:51:00;;;;;;;7.63;3.60;;;12.50;99.90;;;;;;6218932;23;20012;-79
2023/03/17 09:53:55;;;;;;;6.35;3.72;;;12.70;99.90;;;;;;6244957;23;20016;-78
2023/03/17 09:56:23;;;;;;;7.30;3.78;;;12.90;99.90;;;;;;6245988;23;20020;-78
2023/03/17 09:59:23;;;;;;;6.68;3.60;;;13.00;99.90;;;;;;6246276;23;20473;-78
2023/03/17 10:01:49;;;;;;;10.73;3.67;;;13.20;99.90;;;;;;6244968;22;20330;-78
2023/03/17 10:04:17;;;;;;;5.88;4.00;;;13.30;99.90;;;;;;6246679;23;20040;-79
2023/03/17 10:06:45;;;;;;;9.30;3.90;;;13.40;99.90;;;;;;6244955;23;20012;-78
2023/03/17 10:09:28;;;;;;;6.15;3.67;;;13.50;99.90;;;;;;6244723;23;20012;-79
2023/03/17 10:12:39;;;;;;;7.38;4.10;;;13.50;99.90;;;;;;6246932;22;20016;-78
2023/03/17 10:15:40;;;;;;;7.18;3.88;;;13.60;99.90;;;;;;6216309;23;20095;-79
2023/03/17 10:18:15;;;;;;;7.70;4.00;;;13.70;99.90;;;;;;6244926;23;20016;-78
2023/03/17 10:20:55;;;;;;;4.90;3.33;;;13.70;99.90;;;;;;6244617;22;20023;-78
2023/03/17 10:23:28;;;;;;;6.20;3.85;;;13.90;99.90;;;;;;6246511;22;20012;-77
2023/03/17 10:25:59;;;;;;;6.78;4.00;;;14.00;99.90;;;;;;6245874;23;20019;-78
2023/03/17 10:28:29;;;;;;;6.65;3.90;;;14.10;99.90;;;;;;6247261;23;20019;-78
2023/03/17 10:31:10;;;;;;;7.13;4.85;;;14.30;99.90;;;;;;6244511;22;20019;-79
2023/03/17 10:33:37;;;;;;;7.60;3.95;;;14.40;99.90;;;;;;6244995;23;20012;-79
2023/03/17 10:36:08;;;;;;;9.02;3.95;;;14.60;99.90;;;;;;6219386;23;20008;-79
2023/03/17 10:38:35;;;;;;;8.18;3.88;;;14.80;99.90;;;;;;6244749;23;20012;-78
2023/03/17 10:41:12;;;;;;;7.65;4.00;;;14.90;99.90;;;;;;6246236;22;20338;-78
2023/03/17 10:43:47;;;;;;;8.63;4.00;;;15.00;99.90;;;;;;6254187;23;20012;-79
2023/03/17 10:46:24;;;;;;;9.80;4.32;;;15.20;99.90;;;;;;6255928;23;20016;-77
2023/03/17 10:48:58;;;;;;;7.72;3.92;;;15.20;99.90;;;;;;6250689;23;20016;-78
2023/03/17 10:51:30;;;;;;;8.27;4.20;;;15.10;99.90;;;;;;6245263;22;20026;-78
2023/03/17 10:53:59;;;;;;;10.65;4.25;;;15.00;99.90;;;;;;6244696;23;20446;-78
2023/03/17 10:56:36;;;;;;;7.15;3.42;;;15.10;99.90;;;;;;6219264;23;20024;-78
2023/03/17 10:59:08;;;;;;;7.10;3.97;;;15.10;99.90;;;;;;6244476;23;20016;-79
2023/03/17 11:01:40;;;;;;;7.32;4.30;;;15.00;99.90;;;;;;6218671;23;20016;-78
2023/03/17 11:04:41;;;;;;;7.30;4.20;;;14.90;99.90;;;;;;6244671;23;20062;-79
2023/03/17 11:07:37;;;;;;;9.35;3.88;;;15.00;99.90;;;;;;6197028;23;20012;-79
2023/03/17 11:10:13;;;;;;;;;;;15.20;99.90;;;;;;6246582;22;20047;-78
2023/03/17 11:12:40;;;;;;;8.00;4.00;;;15.30;99.90;;;;;;6244946;23;20368;-80
2023/03/17 11:15:16;;;;;;;11.70;4.82;;;15.30;99.90;;;;;;6246487;23;20043;-79
2023/03/17 11:18:00;;;;;;;10.38;4.75;;;15.30;99.90;;;;;;6246387;22;20012;-79
2023/03/17 11:21:01;;;;;;;9.15;4.70;;;15.30;99.90;;;;;;6246993;22;20016;-79
2023/03/17 11:23:35;;;;;;;9.30;4.57;;;15.30;99.90;;;;;;6244464;23;20016;-80
2023/03/17 11:26:16;;;;;;;8.87;4.93;;;15.50;99.90;;;;;;6218863;23;20061;-78
2023/03/17 11:28:48;;;;;;;13.10;4.95;;;15.60;99.90;;;;;;6244091;23;20085;-78
2023/03/17 11:31:14;;;;;;;8.95;4.82;;;15.70;99.90;;;;;;6218747;23;20069;-79
2023/03/17 11:34:02;;;;;;;10.18;5.00;;;15.90;99.90;;;;;;6244142;23;20044;-78
2023/03/17 11:36:44;;;;;;;9.00;4.63;;;16.00;99.90;;;;;;6245611;23;20015;-80
2023/03/17 11:39:24;;;;;;;8.82;4.38;;;16.10;99.90;;;;;;6243937;23;20044;-79
2023/03/17 11:42:22;;;;;;;8.40;4.95;;;16.20;99.90;;;;;;6243952;22;20342;-79
2023/03/17 11:45:14;;;;;;;7.78;4.70;;;16.40;99.90;;;;;;6243481;23;20441;-81
2023/03/17 11:48:07;;;;;;;7.47;5.13;;;16.60;99.90;;;;;;6245406;23;20326;-79
2023/03/17 11:50:38;;;;;;;9.40;4.85;;;16.70;99.90;;;;;;6243778;22;20258;-77
2023/03/17 11:53:16;;;;;;;9.63;5.13;;;16.80;99.90;;;;;;6244587;23;20074;-78
2023/03/17 11:55:58;;;;;;;9.82;4.80;;;16.70;99.90;;;;;;6245851;23;20012;-78
2023/03/17 11:58:56;;;;;;;9.45;5.18;;;16.60;99.90;;;;;;6244821;23;20012;-79
2023/03/17 12:01:31;;;;;;;10.52;4.90;;;16.50;99.90;;;;;;6231310;22;20020;-78
2023/03/17 12:04:08;;;;;;;9.80;4.90;;;16.40;99.90;;;;;;6245900;23;20012;-78
2023/03/17 12:06:39;;;;;;;9.70;6.03;;;16.40;99.90;;;;;;6244346;23;20049;-79
2023/03/17 12:09:17;;;;;;;9.63;5.30;;;16.40;99.90;;;;;;6245940;23;20050;-79
2023/03/17 12:11:45;;;;;;;10.20;5.47;;;16.50;99.90;;;;;;6218833;23;20042;-79
2023/03/17 12:14:28;;;;;;;10.63;5.63;;;16.60;99.90;;;;;;6244747;23;20019;-76
2023/03/17 12:17:29;;;;;;;11.38;6.03;;;16.60;99.90;;;;;;6247910;23;20027;-79
2023/03/17 12:20:15;;;;;;;11.85;5.97;;;16.60;99.90;;;;;;6247496;23;20067;-79
2023/03/17 12:23:00;;;;;;;13.20;7.25;;;16.40;99.90;;;;;;6247385;23;20376;-79
2023/03/17 12:25:43;;;;;;;10.77;6.10;;;16.30;99.90;;;;;;6220712;23;20015;-80
2023/03/17 12:28:29;;;;;;;15.77;6.70;;;16.10;99.90;;;;;;6221522;23;20011;-78
2023/03/17 12:31:05;;;;;;;9.43;5.55;;;16.00;99.90;;;;;;6246694;22;20012;-78
2023/03/17 12:33:47;;;;;;;10.80;6.40;;;16.00;99.90;;;;;;6246283;23;20012;-79
2023/03/17 12:36:15;;;;;;;10.23;6.45;;;16.00;99.90;;;;;;6221700;23;20023;-79
2023/03/17 12:39:17;;;;;;;10.82;5.93;;;16.00;99.90;;;;;;6221212;23;20016;-78
2023/03/17 12:41:58;;;;;;;12.55;7.22;;;16.20;99.90;;;;;;6173270;23;20019;-79
2023/03/17 12:44:43;;;;;;;11.48;5.93;;;16.40;99.90;;;;;;6221820;23;20012;-80
2023/03/17 12:47:31;;;;;;;9.90;6.35;;;16.40;99.90;;;;;;6246035;23;20066;-80
2023/03/17 12:50:36;;;;;;;12.32;6.57;;;16.40;99.90;;;;;;6221554;23;20322;-80
2023/03/17 12:53:08;;;;;;;11.63;6.00;;;16.40;99.90;;;;;;6221110;23;20091;-79
2023/03/17 12:55:37;;;;;;;13.25;6.18;;;16.40;99.90;;;;;;6221751;23;20105;-80
2023/03/17 12:58:13;;;;;;;11.90;6.18;;;16.60;99.90;;;;;;6221400;23;20016;-80
2023/03/17 13:01:00;;;;;;;9.18;5.95;;;16.90;99.90;;;;;;6220890;23;20024;-81
2023/03/17 13:03:29;;;;;;;11.80;6.50;;;17.10;99.90;;;;;;6221347;23;20032;-79
2023/03/17 13:06:07;;;;;;;9.25;6.05;;;17.30;99.90;;;;;;6245292;23;20016;-80
2023/03/17 13:08:38;;;;;;;10.93;6.53;;;17.20;99.90;;;;;;6220065;23;20442;-80
2023/03/17 13:11:15;;;;;;;11.15;6.68;;;16.90;99.90;;;;;;6220579;23;20022;-80
2023/03/17 13:13:58;;;;;;;11.05;6.13;;;16.80;99.90;;;;;;6220784;23;20509;-82
2023/03/17 13:16:43;;;;;;;11.90;6.72;;;16.70;99.90;;;;;;6220453;23;20066;-79
2023/03/17 13:19:21;;;;;;;12.75;6.28;;;16.60;99.90;;;;;;6220760;23;20012;-80
2023/03/17 13:35:31;;;;;;;;;;;;;;;;;;;;;
2023/03/17 13:39:03;;;;;;;;;;;;;;;;;;;;;
2023/03/17 14:04:22;;;;;;;;;;;;;;;;;;;;;
2023/03/17 14:45:29;;;;;;;15.70;7.03;;;16.00;99.90;;;;;;6216096;23;20020;-80
2023/03/17 14:47:55;;;;;;;11.98;6.72;;;16.00;99.90;;;;;;6216698;23;20013;-81
2023/03/17 14:50:31;;;;;;;14.18;7.03;;;16.00;99.90;;;;;;6214077;23;20012;-81
2023/03/17 14:52:59;;;;;;;11.75;6.72;;;16.00;99.90;;;;;;6214222;23;20012;-81
2023/03/17 14:55:34;;;;;;;18.77;6.85;;;15.90;99.90;;;;;;6214252;23;20143;-80
2023/03/17 14:58:07;;;;;;;11.07;6.53;;;15.90;99.90;;;;;;6214124;23;20036;-81
2023/03/17 15:00:36;;;;;;;14.52;7.18;;;15.80;99.90;;;;;;6214519;23;20020;-81
2023/03/17 15:03:16;;;;;;;12.30;7.03;;;15.70;99.90;;;;;;6214088;23;20015;-80
2023/03/17 15:05:44;;;;;;;13.10;6.85;;;15.70;99.90;;;;;;6215048;23;20023;-81
2023/03/17 15:08:41;;;;;;;12.50;6.88;;;15.70;99.90;;;;;;6189698;23;20016;-80
2023/03/17 15:11:13;;;;;;;12.57;6.97;;;15.60;99.90;;;;;;6183815;23;20012;-81
2023/03/17 15:13:39;;;;;;;15.35;6.68;;;15.60;99.90;;;;;;6189773;23;20029;-81
2023/03/17 15:16:29;;;;;;;11.52;6.82;;;15.50;99.90;;;;;;6214560;23;20008;-82
2023/03/17 15:19:23;;;;;;;11.85;6.43;;;15.50;99.90;;;;;;6216364;23;20013;-81
2023/03/17 15:21:49;;;;;;;15.10;8.07;;;15.50;99.90;;;;;;6186533;23;20048;-80
2023/03/17 15:24:39;;;;;;;13.90;7.22;;;15.40;99.90;;;;;;6214042;23;20021;-82
2023/03/17 15:27:16;;;;;;;13.68;7.18;;;15.40;99.90;;;;;;6214026;23;20013;-81
2023/03/17 15:29:43;;;;;;;13.25;6.85;;;15.50;99.90;;;;;;6188856;23;20009;-81
2023/03/17 15:32:18;;;;;;;12.95;7.07;;;15.60;99.90;;;;;;6188932;23;20020;-81
2023/03/17 15:34:48;;;;;;;16.77;7.43;;;15.60;99.90;;;;;;6215866;23;20036;-80
2023/03/17 15:37:20;;;;;;;18.38;7.63;;;15.60;99.90;;;;;;6215822;23;20043;-82
2023/03/17 15:39:48;;;;;;;17.20;7.63;;;15.60;99.90;;;;;;6216443;23;20063;-80
2023/03/17 15:42:15;;;;;;;11.43;6.75;;;15.50;99.90;;;;;;6215607;23;20019;-81
2023/03/17 15:44:41;;;;;;;13.82;7.60;;;15.50;99.90;;;;;;6215361;23;20062;-80
2023/03/17 15:47:10;;;;;;;17.73;8.05;;;15.50;99.90;;;;;;6215814;23;20385;-80
2023/03/17 15:49:36;;;;;;;12.18;6.53;;;15.50;99.90;;;;;;6188995;23;20028;-81
2023/03/17 15:52:15;;;;;;;10.52;7.07;;;15.50;99.90;;;;;;6213316;23;20013;-80
2023/03/17 15:54:40;;;;;;;14.18;8.35;;;15.40;99.90;;;;;;6214739;23;20323;-81
2023/03/17 15:57:09;;;;;;;15.05;7.20;;;15.40;99.90;;;;;;6214071;23;20017;-80
2023/03/17 15:59:35;;;;;;;16.25;7.47;;;15.40;99.90;;;;;;6215931;23;20013;-82
2023/03/17 16:02:01;;;;;;;16.73;7.55;;;15.40;99.90;;;;;;6213911;23;20015;-80
2023/03/17 16:04:27;;;;;;;11.75;6.80;;;15.40;99.90;;;;;;6188724;23;20056;-80
2023/03/17 16:06:52;;;;;;;14.27;7.43;;;15.40;99.90;;;;;;6214076;23;20021;-80
2023/03/17 16:09:18;;;;;;;11.68;6.38;;;15.40;99.90;;;;;;6188843;23;20019;-79
2023/03/17 16:11:44;;;;;;;12.43;6.88;;;15.40;99.90;;;;;;6216125;23;20012;-79
2023/03/17 16:14:09;;;;;;;11.20;6.85;;;15.40;99.90;;;;;;6215954;23;20012;-80
2023/03/17 16:16:42;;;;;;;15.23;7.30;;;15.40;99.90;;;;;;6215706;23;20019;-80
2023/03/17 16:19:17;;;;;;;13.10;8.32;;;15.40;99.90;;;;;;6188805;23;20013;-80
2023/03/17 16:21:43;;;;;;;14.98;9.88;;;15.40;99.90;;;;;;6215408;23;20005;-81
2023/03/17 16:24:17;;;;;;;12.73;7.07;;;15.40;99.90;;;;;;6215335;23;20024;-80
2023/03/17 16:26:43;;;;;;;12.35;6.60;;;15.30;99.90;;;;;;6188517;23;20016;-81
2023/03/17 16:29:13;;;;;;;15.38;7.35;;;15.30;99.90;;;;;;6188587;23;20019;-80
2023/03/17 16:31:39;;;;;;;11.93;6.90;;;15.20;99.90;;;;;;6214481;23;20035;-79
2023/03/17 16:34:18;;;;;;;12.68;6.32;;;15.20;99.90;;;;;;6214569;23;20009;-81
2023/03/17 16:36:43;;;;;;;11.88;7.15;;;15.10;99.90;;;;;;6224590;23;20008;-77
2023/03/17 16:39:17;;;;;;;12.23;6.82;;;15.10;99.90;;;;;;6230790;23;20492;-77
2023/03/17 16:41:47;;;;;;;12.75;6.95;;;15.00;99.90;;;;;;6221656;23;20013;-79
2023/03/17 16:44:15;;;;;;;13.80;6.95;;;15.00;99.90;;;;;;6215486;23;20088;-78
2023/03/17 16:46:43;;;;;;;10.73;6.78;;;14.90;99.90;;;;;;6214630;23;20013;-80
2023/03/17 16:49:15;;;;;;;12.45;7.95;;;14.90;99.90;;;;;;6216221;23;20091;-75
2023/03/17 16:51:41;;;;;;;11.32;6.53;;;14.80;99.90;;;;;;6188844;23;20013;-81
2023/03/17 16:54:07;;;;;;;9.88;6.70;;;14.80;99.90;;;;;;6188888;23;20019;-80
2023/03/17 16:56:33;;;;;;;11.52;7.07;;;14.80;99.90;;;;;;6189070;23;20423;-80
2023/03/17 16:59:00;;;;;;;11.85;6.50;;;14.70;99.90;;;;;;6215477;23;20008;-81
2023/03/17 17:01:27;;;;;;;11.18;6.10;;;14.70;99.90;;;;;;6189826;23;20067;-79
2023/03/17 17:03:53;;;;;;;12.75;6.47;;;14.70;99.90;;;;;;6217126;23;20025;-79
2023/03/17 17:06:21;;;;;;;12.63;7.15;;;14.60;99.90;;;;;;6215508;23;20016;-81
2023/03/17 17:08:47;;;;;;;10.15;6.63;;;14.60;99.90;;;;;;6190621;23;20009;-80
2023/03/17 17:11:14;;;;;;;10.57;6.53;;;14.60;99.90;;;;;;6217212;23;20063;-81
2023/03/17 17:13:41;;;;;;;12.23;6.22;;;14.50;99.90;;;;;;6216936;23;20098;-80
2023/03/17 17:16:15;;;;;;;10.48;6.05;;;14.50;99.90;;;;;;6215448;23;20374;-81
2023/03/17 17:18:41;;;;;;;11.80;7.13;;;14.40;99.90;;;;;;6217655;23;20091;-79
2023/03/17 17:21:06;;;;;;;9.95;6.15;;;14.40;99.90;;;;;;6216208;23;20071;-79
2023/03/17 17:23:42;;;;;;;;;;;;;;;;;;;;;
2023/03/17 17:26:08;;;;;;;14.15;7.22;;;14.30;99.90;;;;;;6214143;23;20013;-79
2023/03/17 17:28:39;;;;;;;11.77;6.47;;;14.20;99.90;;;;;;6190655;23;20047;-80
2023/03/17 17:31:06;;;;;;;14.60;6.95;;;14.10;99.90;;;;;;6191095;23;20388;-79
2023/03/17 17:33:32;;;;;;;14.25;7.40;;;14.10;99.90;;;;;;6215341;23;20434;-81
2023/03/17 17:35:58;;;;;;;15.90;7.47;;;14.00;99.90;;;;;;6217128;23;20299;-80
2023/03/17 17:38:27;;;;;;;10.20;6.20;;;14.00;99.90;;;;;;6215900;23;20012;-81
2023/03/17 17:41:01;;;;;;;12.13;6.93;;;14.00;99.90;;;;;;6215506;23;20012;-80
2023/03/17 17:43:26;;;;;;;12.13;6.55;;;13.90;99.90;;;;;;6215320;23;20028;-81
2023/03/17 17:45:53;;;;;;;12.00;7.18;;;13.90;99.90;;;;;;6215525;23;20021;-79
2023/03/17 17:48:24;;;;;;;13.45;7.43;;;13.80;99.90;;;;;;6190246;23;20012;-80
2023/03/17 17:50:51;;;;;;;14.73;7.65;;;13.80;99.90;;;;;;6215388;23;20013;-80
2023/03/17 17:53:17;;;;;;;15.82;8.60;;;13.80;99.90;;;;;;6217270;23;20371;-78
2023/03/17 17:55:45;;;;;;;16.60;8.25;;;13.70;99.90;;;;;;6215327;23;20047;-81
2023/03/17 17:58:16;;;;;;;14.63;7.85;;;13.70;99.90;;;;;;6190222;23;20016;-80
2023/03/17 18:00:41;;;;;;;11.88;7.22;;;13.70;99.90;;;;;;6189819;23;20020;-81
2023/03/17 18:03:07;;;;;;;13.73;8.10;;;13.60;99.90;;;;;;6190051;23;20096;-81
2023/03/17 18:05:33;;;;;;;14.32;8.88;;;13.60;99.90;;;;;;6214932;23;20526;-80
2023/03/17 18:08:01;;;;;;;16.67;8.57;;;13.60;99.90;;;;;;6215065;23;20044;-79
2023/03/17 18:10:28;;;;;;;15.80;8.70;;;13.60;99.90;;;;;;6189608;23;20013;-81
2023/03/17 18:12:55;;;;;;;14.20;7.75;;;13.60;99.90;;;;;;6189387;23;20021;-80
2023/03/17 18:15:21;;;;;;;14.75;9.05;;;13.60;99.90;;;;;;6189745;23;20020;-79
2023/03/17 18:17:48;;;;;;;14.30;8.48;;;13.50;99.90;;;;;;6216462;23;20104;-79
2023/03/17 18:20:15;;;;;;;15.32;8.35;;;13.50;99.90;;;;;;6189962;23;20028;-80
2023/03/17 18:22:42;;;;;;;16.27;8.02;;;13.50;99.90;;;;;;6216598;23;20008;-79
2023/03/17 18:25:10;;;;;;;15.35;8.77;;;13.50;99.90;;;;;;6216785;23;20096;-81